createdAt,value
2017-07-05T00:00:08.445Z,941.86
2017-07-05T00:00:36.575Z,941.85
2017-07-05T00:01:04.848Z,941.84
2017-07-05T00:01:32.941Z,941.86
2017-07-05T00:02:01.237Z,941.82
2017-07-05T00:02:29.341Z,941.86
2017-07-05T00:02:57.553Z,941.89
2017-07-05T00:03:25.775Z,941.85
2017-07-05T00:03:53.905Z,941.84
2017-07-05T00:04:22.138Z,941.83
2017-07-05T00:04:50.339Z,941.86
2017-07-05T00:05:18.556Z,941.87
2017-07-05T00:05:46.701Z,941.87
2017-07-05T00:06:14.945Z,941.86
2017-07-05T00:06:42.951Z,941.9
2017-07-05T00:07:11.073Z,941.88
2017-07-05T00:07:39.092Z,941.88
2017-07-05T00:08:07.126Z,941.83
2017-07-05T00:08:35.367Z,941.89
2017-07-05T00:09:03.518Z,941.86
2017-07-05T00:09:31.623Z,941.85
2017-07-05T00:09:59.755Z,941.85
2017-07-05T00:10:28.004Z,941.89
2017-07-05T00:10:56.145Z,941.86
2017-07-05T00:11:24.372Z,941.88
2017-07-05T00:11:52.498Z,941.87
2017-07-05T00:12:20.781Z,941.9
2017-07-05T00:12:48.878Z,941.88
2017-07-05T00:13:16.812Z,941.87
2017-07-05T00:13:44.926Z,941.89
2017-07-05T00:14:13.015Z,941.9
2017-07-05T00:14:41.032Z,941.88
2017-07-05T00:15:09.038Z,941.89
2017-07-05T00:15:37.089Z,941.88
2017-07-05T00:16:05.333Z,941.88
2017-07-05T00:16:33.344Z,941.91
2017-07-05T00:17:01.488Z,941.9
2017-07-05T00:17:29.588Z,941.87
2017-07-05T00:17:57.499Z,941.91
2017-07-05T00:18:25.507Z,941.88
2017-07-05T00:18:53.581Z,941.9
2017-07-05T00:19:21.636Z,941.9
2017-07-05T00:19:49.893Z,941.85
2017-07-05T00:20:17.909Z,941.87
2017-07-05T00:20:46.142Z,941.87
2017-07-05T00:21:14.394Z,941.9
2017-07-05T00:21:42.670Z,941.9
2017-07-05T00:22:10.821Z,941.89
2017-07-05T00:22:39.232Z,941.89
2017-07-05T00:23:07.351Z,941.89
2017-07-05T00:23:35.530Z,941.88
2017-07-05T00:24:03.720Z,941.88
2017-07-05T00:24:31.833Z,941.87
2017-07-05T00:24:59.858Z,941.9
2017-07-05T00:25:27.998Z,941.89
2017-07-05T00:25:56.248Z,941.88
2017-07-05T00:26:24.482Z,941.89
2017-07-05T00:26:52.534Z,941.89
2017-07-05T00:27:20.911Z,941.9
2017-07-05T00:27:49.176Z,941.9
2017-07-05T00:28:17.315Z,941.9
2017-07-05T00:28:45.588Z,941.95
2017-07-05T00:29:13.846Z,941.96
2017-07-05T00:29:42.053Z,941.94
2017-07-05T00:30:10.264Z,941.97
2017-07-05T00:30:38.393Z,941.96
2017-07-05T00:31:06.551Z,941.93
2017-07-05T00:31:34.745Z,941.98
2017-07-05T00:32:02.775Z,942.01
2017-07-05T00:32:30.996Z,942.01
2017-07-05T00:32:59.056Z,942
2017-07-05T00:33:27.157Z,942.01
2017-07-05T00:33:55.423Z,942.04
2017-07-05T00:34:23.598Z,942.01
2017-07-05T00:34:51.815Z,942.03
2017-07-05T00:35:19.953Z,942.06
2017-07-05T00:35:47.972Z,942.06
2017-07-05T00:36:16.186Z,942.05
2017-07-05T00:36:44.244Z,942.04
2017-07-05T00:37:12.387Z,942.03
2017-07-05T00:37:40.628Z,942.02
2017-07-05T00:38:08.762Z,942.02
2017-07-05T00:38:36.675Z,942.02
2017-07-05T00:39:04.855Z,942.04
2017-07-05T00:39:33.113Z,942.05
2017-07-05T00:40:01.288Z,942.06
2017-07-05T00:40:29.380Z,942.03
2017-07-05T00:40:57.570Z,942.04
2017-07-05T00:41:25.745Z,942.04
2017-07-05T00:41:54.059Z,942.04
2017-07-05T00:42:22.275Z,942.02
2017-07-05T00:42:50.384Z,941.99
2017-07-05T00:43:18.511Z,942
2017-07-05T00:43:46.628Z,942.01
2017-07-05T00:44:14.654Z,942.01
2017-07-05T00:44:42.775Z,941.96
2017-07-05T00:45:10.773Z,942
2017-07-05T00:45:38.897Z,942
2017-07-05T00:46:06.925Z,942.03
2017-07-05T00:46:35.146Z,942
2017-07-05T00:47:03.322Z,942.01
2017-07-05T00:47:31.450Z,942.02
2017-07-05T00:47:59.688Z,942.03
2017-07-05T00:48:27.702Z,942.03
2017-07-05T00:48:55.840Z,942.05
2017-07-05T00:49:23.787Z,942.03
2017-07-05T00:49:52.008Z,942.07
2017-07-05T00:50:20.173Z,942.03
2017-07-05T00:50:48.289Z,942.07
2017-07-05T00:51:16.403Z,942.07
2017-07-05T00:51:44.518Z,942.06
2017-07-05T00:52:12.674Z,942.05
2017-07-05T00:52:40.824Z,942.09
2017-07-05T00:53:09.038Z,942.05
2017-07-05T00:53:37.258Z,942.06
2017-07-05T00:54:05.386Z,942.07
2017-07-05T00:54:33.649Z,942.06
2017-07-05T00:55:01.674Z,942.07
2017-07-05T00:55:29.775Z,942.08
2017-07-05T00:55:57.915Z,942.07
2017-07-05T00:56:26.001Z,942.09
2017-07-05T00:56:54.092Z,942.09
2017-07-05T00:57:22.124Z,942.13
2017-07-05T00:57:50.125Z,942.12
2017-07-05T00:58:18.245Z,942.09
2017-07-05T00:58:46.453Z,942.09
2017-07-05T00:59:14.668Z,942.12
2017-07-05T00:59:42.849Z,942.1
2017-07-05T01:00:11.043Z,942.08
2017-07-05T01:00:38.975Z,942.11
2017-07-05T01:01:07.325Z,942.07
2017-07-05T01:01:35.361Z,942.09
2017-07-05T01:02:03.498Z,942.08
2017-07-05T01:02:31.497Z,942.08
2017-07-05T01:02:59.822Z,942.07
2017-07-05T01:03:28.101Z,942.06
2017-07-05T01:03:56.243Z,942.09
2017-07-05T01:04:24.273Z,942.1
2017-07-05T01:04:52.529Z,942.09
2017-07-05T01:05:20.750Z,942.1
2017-07-05T01:05:48.872Z,942.1
2017-07-05T01:06:17.095Z,942.08
2017-07-05T01:06:45.350Z,942.1
2017-07-05T01:07:13.359Z,942.09
2017-07-05T01:07:41.484Z,942.08
2017-07-05T01:08:09.826Z,942.09
2017-07-05T01:08:37.780Z,942.1
2017-07-05T01:09:05.962Z,942.04
2017-07-05T01:09:34.101Z,942.09
2017-07-05T01:10:02.322Z,942.06
2017-07-05T01:10:30.569Z,942.07
2017-07-05T01:10:58.716Z,942.09
2017-07-05T01:11:26.844Z,942.08
2017-07-05T01:11:54.955Z,942.06
2017-07-05T01:12:23.105Z,942.07
2017-07-05T01:12:51.214Z,942.06
2017-07-05T01:13:19.414Z,942.04
2017-07-05T01:13:47.730Z,942.07
2017-07-05T01:14:15.889Z,942.08
2017-07-05T01:14:44.097Z,942.08
2017-07-05T01:15:12.263Z,942.07
2017-07-05T01:15:40.185Z,942.08
2017-07-05T01:16:08.317Z,942.11
2017-07-05T01:16:36.455Z,942.11
2017-07-05T01:17:04.673Z,942.05
2017-07-05T01:17:32.932Z,942.1
2017-07-05T01:18:01.213Z,942.11
2017-07-05T01:18:29.283Z,942.03
2017-07-05T01:18:57.476Z,942.06
2017-07-05T01:19:25.614Z,942.08
2017-07-05T01:19:53.626Z,942.09
2017-07-05T01:20:21.859Z,942.11
2017-07-05T01:20:50.086Z,942.11
2017-07-05T01:21:18.362Z,942.12
2017-07-05T01:21:46.412Z,942.14
2017-07-05T01:22:14.544Z,942.17
2017-07-05T01:22:42.683Z,942.13
2017-07-05T01:23:10.816Z,942.11
2017-07-05T01:23:38.936Z,942.12
2017-07-05T01:24:07.036Z,942.14
2017-07-05T01:24:35.400Z,942.13
2017-07-05T01:25:03.818Z,942.16
2017-07-05T01:25:32.398Z,942.09
2017-07-05T01:26:00.489Z,942.13
2017-07-05T01:26:28.698Z,942.11
2017-07-05T01:26:56.805Z,942.14
2017-07-05T01:27:24.990Z,942.13
2017-07-05T01:27:53.255Z,942.15
2017-07-05T01:28:21.577Z,942.16
2017-07-05T01:28:49.692Z,942.16
2017-07-05T01:29:17.807Z,942.17
2017-07-05T01:29:45.925Z,942.16
2017-07-05T01:30:14.049Z,942.16
2017-07-05T01:30:42.220Z,942.18
2017-07-05T01:31:10.379Z,942.22
2017-07-05T01:31:38.617Z,942.24
2017-07-05T01:32:06.649Z,942.19
2017-07-05T01:32:34.910Z,942.18
2017-07-05T01:33:03.135Z,942.25
2017-07-05T01:33:31.477Z,942.23
2017-07-05T01:33:59.716Z,942.21
2017-07-05T01:34:27.923Z,942.24
2017-07-05T01:34:55.945Z,942.2
2017-07-05T01:35:23.998Z,942.21
2017-07-05T01:35:52.015Z,942.2
2017-07-05T01:36:20.126Z,942.24
2017-07-05T01:36:48.348Z,942.21
2017-07-05T01:37:16.476Z,942.16
2017-07-05T01:37:44.688Z,942.22
2017-07-05T01:38:13.090Z,942.15
2017-07-05T01:38:41.326Z,942.19
2017-07-05T01:39:09.460Z,942.18
2017-07-05T01:39:37.808Z,942.16
2017-07-05T01:40:05.799Z,942.2
2017-07-05T01:40:33.905Z,942.18
2017-07-05T01:41:01.982Z,942.2
2017-07-05T01:41:30.189Z,942.15
2017-07-05T01:41:58.304Z,942.2
2017-07-05T01:42:26.388Z,942.18
2017-07-05T01:42:54.312Z,942.23
2017-07-05T01:43:22.427Z,942.2
2017-07-05T01:43:50.588Z,942.17
2017-07-05T01:44:18.802Z,942.15
2017-07-05T01:44:46.803Z,942.2
2017-07-05T01:45:14.791Z,942.17
2017-07-05T01:45:42.788Z,942.2
2017-07-05T01:46:11.012Z,942.19
2017-07-05T01:46:39.118Z,942.19
2017-07-05T01:47:07.352Z,942.23
2017-07-05T01:47:35.485Z,942.23
2017-07-05T01:48:03.688Z,942.26
2017-07-05T01:48:31.833Z,942.24
2017-07-05T01:48:59.704Z,942.2
2017-07-05T01:49:27.667Z,942.22
2017-07-05T01:49:55.875Z,942.28
2017-07-05T01:50:24.025Z,942.26
2017-07-05T01:50:52.054Z,942.22
2017-07-05T01:51:20.084Z,942.24
2017-07-05T01:51:48.324Z,942.24
2017-07-05T01:52:16.426Z,942.26
2017-07-05T01:52:44.465Z,942.25
2017-07-05T01:53:12.619Z,942.26
2017-07-05T01:53:40.739Z,942.26
2017-07-05T01:54:08.981Z,942.27
2017-07-05T01:54:36.995Z,942.21
2017-07-05T01:55:05.023Z,942.31
2017-07-05T01:55:33.045Z,942.31
2017-07-05T01:56:01.104Z,942.29
2017-07-05T01:56:29.351Z,942.29
2017-07-05T01:56:57.396Z,942.3
2017-07-05T01:57:25.488Z,942.27
2017-07-05T01:57:53.599Z,942.27
2017-07-05T01:58:21.737Z,942.29
2017-07-05T01:58:50.162Z,942.32
2017-07-05T01:59:18.375Z,942.31
2017-07-05T01:59:46.493Z,942.28
2017-07-05T02:00:14.629Z,942.28
2017-07-05T02:00:42.823Z,942.32
2017-07-05T02:01:10.968Z,942.3
2017-07-05T02:01:39.068Z,942.3
2017-07-05T02:02:07.266Z,942.32
2017-07-05T02:02:35.277Z,942.28
2017-07-05T02:03:03.491Z,942.27
2017-07-05T02:03:31.536Z,942.27
2017-07-05T02:03:59.855Z,942.26
2017-07-05T02:04:27.927Z,942.28
2017-07-05T02:04:56.159Z,942.3
2017-07-05T02:05:24.301Z,942.28
2017-07-05T02:05:52.425Z,942.29
2017-07-05T02:06:20.438Z,942.29
2017-07-05T02:06:48.683Z,942.3
2017-07-05T02:07:16.919Z,942.3
2017-07-05T02:07:45.027Z,942.32
2017-07-05T02:08:13.059Z,942.34
2017-07-05T02:08:41.363Z,942.35
2017-07-05T02:09:09.225Z,942.35
2017-07-05T02:09:37.460Z,942.38
2017-07-05T02:10:05.672Z,942.35
2017-07-05T02:10:33.824Z,942.38
2017-07-05T02:11:02.316Z,942.37
2017-07-05T02:11:30.510Z,942.37
2017-07-05T02:11:58.684Z,942.38
2017-07-05T02:12:26.882Z,942.38
2017-07-05T02:12:54.958Z,942.37
2017-07-05T02:13:23.154Z,942.36
2017-07-05T02:13:51.454Z,942.38
2017-07-05T02:14:19.579Z,942.38
2017-07-05T02:14:47.404Z,942.38
2017-07-05T02:15:15.613Z,942.39
2017-07-05T02:15:43.840Z,942.4
2017-07-05T02:16:12.060Z,942.41
2017-07-05T02:16:40.221Z,942.4
2017-07-05T02:17:08.429Z,942.41
2017-07-05T02:17:36.516Z,942.42
2017-07-05T02:18:04.644Z,942.43
2017-07-05T02:18:32.766Z,942.44
2017-07-05T02:19:00.991Z,942.44
2017-07-05T02:19:29.008Z,942.43
2017-07-05T02:19:57.253Z,942.43
2017-07-05T02:20:25.465Z,942.42
2017-07-05T02:20:53.616Z,942.43
2017-07-05T02:21:21.850Z,942.41
2017-07-05T02:21:50.064Z,942.44
2017-07-05T02:22:18.225Z,942.41
2017-07-05T02:22:46.434Z,942.41
2017-07-05T02:23:14.666Z,942.42
2017-07-05T02:23:42.752Z,942.41
2017-07-05T02:24:11.014Z,942.39
2017-07-05T02:24:39.244Z,942.39
2017-07-05T02:25:07.368Z,942.44
2017-07-05T02:25:35.612Z,942.43
2017-07-05T02:26:03.661Z,942.39
2017-07-05T02:26:31.893Z,942.38
2017-07-05T02:27:00.060Z,942.38
2017-07-05T02:27:28.111Z,942.4
2017-07-05T02:27:56.373Z,942.35
2017-07-05T02:28:24.582Z,942.35
2017-07-05T02:28:52.761Z,942.37
2017-07-05T02:29:21.014Z,942.32
2017-07-05T02:29:49.138Z,942.29
2017-07-05T02:30:17.292Z,942.32
2017-07-05T02:30:45.299Z,942.3
2017-07-05T02:31:13.509Z,942.28
2017-07-05T02:31:41.612Z,942.28
2017-07-05T02:32:09.861Z,942.27
2017-07-05T02:32:37.908Z,942.27
2017-07-05T02:33:06.172Z,942.22
2017-07-05T02:33:34.361Z,942.22
2017-07-05T02:34:02.475Z,942.26
2017-07-05T02:34:30.570Z,942.21
2017-07-05T02:34:58.850Z,942.21
2017-07-05T02:35:26.806Z,942.19
2017-07-05T02:35:55.206Z,942.17
2017-07-05T02:36:23.352Z,942.22
2017-07-05T02:36:51.384Z,942.2
2017-07-05T02:37:19.563Z,942.19
2017-07-05T02:37:47.683Z,942.2
2017-07-05T02:38:15.822Z,942.21
2017-07-05T02:38:43.997Z,942.16
2017-07-05T02:39:12.229Z,942.21
2017-07-05T02:39:40.446Z,942.2
2017-07-05T02:40:08.565Z,942.21
2017-07-05T02:40:36.700Z,942.25
2017-07-05T02:41:04.937Z,942.25
2017-07-05T02:41:33.359Z,942.25
2017-07-05T02:42:01.405Z,942.24
2017-07-05T02:42:29.595Z,942.26
2017-07-05T02:42:57.722Z,942.21
2017-07-05T02:43:25.970Z,942.23
2017-07-05T02:43:54.052Z,942.27
2017-07-05T02:44:22.271Z,942.27
2017-07-05T02:44:50.413Z,942.28
2017-07-05T02:45:18.423Z,942.24
2017-07-05T02:45:46.560Z,942.27
2017-07-05T02:46:14.659Z,942.26
2017-07-05T02:46:42.853Z,942.3
2017-07-05T02:47:11.152Z,942.31
2017-07-05T02:47:39.169Z,942.25
2017-07-05T02:48:07.377Z,942.26
2017-07-05T02:48:35.577Z,942.27
2017-07-05T02:49:03.547Z,942.28
2017-07-05T02:49:31.734Z,942.29
2017-07-05T02:49:59.984Z,942.31
2017-07-05T02:50:28.190Z,942.29
2017-07-05T02:50:56.134Z,942.27
2017-07-05T02:51:24.315Z,942.27
2017-07-05T02:51:52.398Z,942.29
2017-07-05T02:52:20.424Z,942.25
2017-07-05T02:52:48.659Z,942.3
2017-07-05T02:53:16.669Z,942.28
2017-07-05T02:53:44.689Z,942.28
2017-07-05T02:54:12.710Z,942.29
2017-07-05T02:54:40.805Z,942.27
2017-07-05T02:55:08.912Z,942.27
2017-07-05T02:55:37.156Z,942.29
2017-07-05T02:56:05.309Z,942.31
2017-07-05T02:56:33.513Z,942.33
2017-07-05T02:57:01.653Z,942.28
2017-07-05T02:57:29.682Z,942.27
2017-07-05T02:57:57.938Z,942.3
2017-07-05T02:58:26.077Z,942.26
2017-07-05T02:58:54.249Z,942.26
2017-07-05T02:59:22.303Z,942.27
2017-07-05T02:59:50.376Z,942.28
2017-07-05T03:00:18.571Z,942.29
2017-07-05T03:00:46.798Z,942.23
2017-07-05T03:01:15.004Z,942.26
2017-07-05T03:01:43.189Z,942.28
2017-07-05T03:02:11.305Z,942.26
2017-07-05T03:02:39.506Z,942.24
2017-07-05T03:03:07.499Z,942.23
2017-07-05T03:03:35.627Z,942.24
2017-07-05T03:04:03.882Z,942.23
2017-07-05T03:04:32.226Z,942.24
2017-07-05T03:05:00.351Z,942.2
2017-07-05T03:05:28.548Z,942.24
2017-07-05T03:05:56.653Z,942.19
2017-07-05T03:06:24.887Z,942.17
2017-07-05T03:06:52.932Z,942.19
2017-07-05T03:07:20.931Z,942.16
2017-07-05T03:07:49.166Z,942.15
2017-07-05T03:08:17.322Z,942.19
2017-07-05T03:08:45.535Z,942.16
2017-07-05T03:09:13.588Z,942.15
2017-07-05T03:09:41.798Z,942.17
2017-07-05T03:10:10.028Z,942.13
2017-07-05T03:10:38.133Z,942.11
2017-07-05T03:11:06.269Z,942.15
2017-07-05T03:11:34.479Z,942.12
2017-07-05T03:12:02.679Z,942.09
2017-07-05T03:12:30.828Z,942.1
2017-07-05T03:12:59.028Z,942.08
2017-07-05T03:13:27.137Z,942.07
2017-07-05T03:13:55.370Z,942.08
2017-07-05T03:14:23.591Z,942.02
2017-07-05T03:14:51.881Z,942.04
2017-07-05T03:15:20.094Z,942.02
2017-07-05T03:15:48.344Z,941.98
2017-07-05T03:16:16.526Z,942.03
2017-07-05T03:16:44.632Z,942.01
2017-07-05T03:17:12.730Z,942.04
2017-07-05T03:17:40.835Z,942
2017-07-05T03:18:08.967Z,942.03
2017-07-05T03:18:37.124Z,942.04
2017-07-05T03:19:05.241Z,942.05
2017-07-05T03:19:33.483Z,942.01
2017-07-05T03:20:01.776Z,942.02
2017-07-05T03:20:29.949Z,942.04
2017-07-05T03:20:58.071Z,942.01
2017-07-05T03:21:26.192Z,942.03
2017-07-05T03:21:54.295Z,942
2017-07-05T03:22:22.412Z,942.01
2017-07-05T03:22:50.590Z,942.05
2017-07-05T03:23:18.535Z,942
2017-07-05T03:23:46.655Z,942.03
2017-07-05T03:24:14.773Z,942.04
2017-07-05T03:24:43.165Z,942.02
2017-07-05T03:25:11.397Z,942.01
2017-07-05T03:25:39.692Z,942.02
2017-07-05T03:26:07.810Z,942.04
2017-07-05T03:26:35.907Z,942
2017-07-05T03:27:03.824Z,942.03
2017-07-05T03:27:32.055Z,942.03
2017-07-05T03:28:00.047Z,942.06
2017-07-05T03:28:28.273Z,942.01
2017-07-05T03:28:56.489Z,942.08
2017-07-05T03:29:24.420Z,942.02
2017-07-05T03:29:52.639Z,942.03
2017-07-05T03:30:20.873Z,942.05
2017-07-05T03:30:49.125Z,942.06
2017-07-05T03:31:17.152Z,942.03
2017-07-05T03:31:45.287Z,942.06
2017-07-05T03:32:13.515Z,942.06
2017-07-05T03:32:41.656Z,942.07
2017-07-05T03:33:09.757Z,942.03
2017-07-05T03:33:37.812Z,942.09
2017-07-05T03:34:05.966Z,942.06
2017-07-05T03:34:34.075Z,942.08
2017-07-05T03:35:02.305Z,942.06
2017-07-05T03:35:30.428Z,942.06
2017-07-05T03:35:58.460Z,942.07
2017-07-05T03:36:26.681Z,942.03
2017-07-05T03:36:54.930Z,942.03
2017-07-05T03:37:23.077Z,942.01
2017-07-05T03:37:51.267Z,942.03
2017-07-05T03:38:19.321Z,942.04
2017-07-05T03:38:47.522Z,942.03
2017-07-05T03:39:15.708Z,942.01
2017-07-05T03:39:43.962Z,942.01
2017-07-05T03:40:12.275Z,942.03
2017-07-05T03:40:40.402Z,942.02
2017-07-05T03:41:08.632Z,942.02
2017-07-05T03:41:36.737Z,942.06
2017-07-05T03:42:05.015Z,942.05
2017-07-05T03:42:33.145Z,942.04
2017-07-05T03:43:01.255Z,942.04
2017-07-05T03:43:29.345Z,942.03
2017-07-05T03:43:57.472Z,942.07
2017-07-05T03:44:25.535Z,942.04
2017-07-05T03:44:53.690Z,942.04
2017-07-05T03:45:22.065Z,942.09
2017-07-05T03:45:50.110Z,942.05
2017-07-05T03:46:18.299Z,942.05
2017-07-05T03:46:46.247Z,942.05
2017-07-05T03:47:14.345Z,942.02
2017-07-05T03:47:42.402Z,942.03
2017-07-05T03:48:10.603Z,942.01
2017-07-05T03:48:38.833Z,942
2017-07-05T03:49:06.929Z,942.02
2017-07-05T03:49:34.827Z,942
2017-07-05T03:50:03.078Z,942.04
2017-07-05T03:50:31.127Z,942.01
2017-07-05T03:50:59.143Z,942.02
2017-07-05T03:51:27.383Z,942.02
2017-07-05T03:51:55.348Z,942.04
2017-07-05T03:52:23.588Z,942.02
2017-07-05T03:52:51.723Z,942.07
2017-07-05T03:53:19.846Z,942.06
2017-07-05T03:53:47.982Z,942.07
2017-07-05T03:54:15.972Z,942.02
2017-07-05T03:54:44.132Z,942.05
2017-07-05T03:55:12.410Z,942.03
2017-07-05T03:55:40.449Z,942.04
2017-07-05T03:56:08.551Z,942.03
2017-07-05T03:56:36.552Z,942.04
2017-07-05T03:57:04.558Z,942.05
2017-07-05T03:57:32.748Z,942.04
2017-07-05T03:58:00.742Z,942.01
2017-07-05T03:58:28.872Z,942.03
2017-07-05T03:58:57.032Z,942.04
2017-07-05T03:59:25.104Z,942.03
2017-07-05T03:59:53.243Z,942
2017-07-05T04:00:21.680Z,942
2017-07-05T04:00:49.864Z,942
2017-07-05T04:01:18.098Z,942.01
2017-07-05T04:01:46.012Z,942
2017-07-05T04:02:14.043Z,941.99
2017-07-05T04:02:42.193Z,941.97
2017-07-05T04:03:10.419Z,941.98
2017-07-05T04:03:38.423Z,941.98
2017-07-05T04:04:06.572Z,941.95
2017-07-05T04:04:34.579Z,942
2017-07-05T04:05:02.681Z,941.97
2017-07-05T04:05:31.048Z,941.95
2017-07-05T04:05:59.011Z,941.97
2017-07-05T04:06:27.103Z,941.97
2017-07-05T04:06:55.354Z,941.98
2017-07-05T04:07:23.467Z,941.95
2017-07-05T04:07:51.709Z,941.96
2017-07-05T04:08:19.758Z,941.95
2017-07-05T04:08:47.990Z,941.96
2017-07-05T04:09:16.058Z,941.95
2017-07-05T04:09:44.312Z,941.96
2017-07-05T04:10:12.515Z,941.96
2017-07-05T04:10:40.689Z,942
2017-07-05T04:11:08.811Z,941.99
2017-07-05T04:11:37.066Z,942
2017-07-05T04:12:05.129Z,941.98
2017-07-05T04:12:33.164Z,942.03
2017-07-05T04:13:01.222Z,942.02
2017-07-05T04:13:29.259Z,942.01
2017-07-05T04:13:57.278Z,942.02
2017-07-05T04:14:25.519Z,942
2017-07-05T04:14:53.701Z,941.99
2017-07-05T04:15:21.932Z,941.99
2017-07-05T04:15:50.156Z,941.99
2017-07-05T04:16:18.266Z,942
2017-07-05T04:16:46.298Z,941.99
2017-07-05T04:17:14.427Z,941.96
2017-07-05T04:17:42.584Z,941.96
2017-07-05T04:18:10.719Z,941.94
2017-07-05T04:18:38.877Z,941.95
2017-07-05T04:19:07.015Z,941.93
2017-07-05T04:19:35.251Z,941.93
2017-07-05T04:20:03.303Z,941.91
2017-07-05T04:20:31.603Z,941.91
2017-07-05T04:20:59.833Z,941.93
2017-07-05T04:21:28.109Z,941.94
2017-07-05T04:21:56.119Z,941.93
2017-07-05T04:22:24.329Z,941.91
2017-07-05T04:22:52.537Z,941.94
2017-07-05T04:23:20.776Z,941.95
2017-07-05T04:23:48.834Z,941.94
2017-07-05T04:24:16.998Z,941.92
2017-07-05T04:24:44.922Z,941.91
2017-07-05T04:25:12.993Z,941.92
2017-07-05T04:25:41.263Z,941.93
2017-07-05T04:26:09.366Z,941.91
2017-07-05T04:26:37.462Z,941.92
2017-07-05T04:27:05.619Z,941.87
2017-07-05T04:27:33.677Z,941.89
2017-07-05T04:28:01.918Z,941.9
2017-07-05T04:28:30.144Z,941.89
2017-07-05T04:28:58.353Z,941.89
2017-07-05T04:29:26.575Z,941.9
2017-07-05T04:29:54.719Z,941.9
2017-07-05T04:30:22.943Z,941.94
2017-07-05T04:30:51.147Z,941.91
2017-07-05T04:31:19.256Z,941.93
2017-07-05T04:31:47.418Z,941.93
2017-07-05T04:32:15.572Z,941.91
2017-07-05T04:32:43.654Z,941.96
2017-07-05T04:33:11.723Z,941.97
2017-07-05T04:33:39.895Z,941.91
2017-07-05T04:34:08.135Z,941.93
2017-07-05T04:34:36.052Z,941.94
2017-07-05T04:35:03.959Z,941.95
2017-07-05T04:35:32.080Z,941.91
2017-07-05T04:36:00.433Z,941.9
2017-07-05T04:36:28.447Z,941.92
2017-07-05T04:36:56.599Z,941.93
2017-07-05T04:37:24.779Z,941.93
2017-07-05T04:37:52.904Z,941.96
2017-07-05T04:38:21.043Z,941.97
2017-07-05T04:38:49.255Z,941.97
2017-07-05T04:39:17.309Z,941.96
2017-07-05T04:39:45.428Z,941.94
2017-07-05T04:40:13.539Z,941.95
2017-07-05T04:40:41.866Z,941.9
2017-07-05T04:41:09.871Z,941.93
2017-07-05T04:41:38.011Z,941.92
2017-07-05T04:42:06.256Z,941.96
2017-07-05T04:42:34.275Z,941.96
2017-07-05T04:43:02.449Z,941.96
2017-07-05T04:43:30.624Z,941.95
2017-07-05T04:43:58.886Z,941.94
2017-07-05T04:44:27.135Z,941.92
2017-07-05T04:44:55.354Z,941.92
2017-07-05T04:45:23.663Z,941.91
2017-07-05T04:45:51.839Z,941.9
2017-07-05T04:46:20.120Z,941.89
2017-07-05T04:46:48.360Z,941.87
2017-07-05T04:47:16.551Z,941.89
2017-07-05T04:47:44.719Z,941.9
2017-07-05T04:48:12.827Z,941.88
2017-07-05T04:48:41.026Z,941.89
2017-07-05T04:49:09.206Z,941.86
2017-07-05T04:49:37.429Z,941.88
2017-07-05T04:50:05.535Z,941.89
2017-07-05T04:50:33.569Z,941.93
2017-07-05T04:51:01.695Z,941.88
2017-07-05T04:51:29.833Z,941.89
2017-07-05T04:51:58.050Z,941.91
2017-07-05T04:52:26.186Z,941.9
2017-07-05T04:52:54.278Z,941.88
2017-07-05T04:53:22.410Z,941.89
2017-07-05T04:53:50.566Z,941.87
2017-07-05T04:54:18.777Z,941.87
2017-07-05T04:54:47.002Z,941.89
2017-07-05T04:55:15.203Z,941.91
2017-07-05T04:55:43.287Z,941.92
2017-07-05T04:56:11.426Z,941.88
2017-07-05T04:56:39.366Z,941.88
2017-07-05T04:57:07.461Z,941.89
2017-07-05T04:57:35.710Z,941.88
2017-07-05T04:58:03.957Z,941.88
2017-07-05T04:58:32.178Z,941.87
2017-07-05T04:59:00.273Z,941.86
2017-07-05T04:59:28.504Z,941.85
2017-07-05T04:59:56.592Z,941.86
2017-07-05T05:00:24.622Z,941.87
2017-07-05T05:00:52.830Z,941.88
2017-07-05T05:01:20.976Z,941.87
2017-07-05T05:01:49.098Z,941.89
2017-07-05T05:02:17.132Z,941.89
2017-07-05T05:02:45.270Z,941.88
2017-07-05T05:03:13.301Z,941.89
2017-07-05T05:03:41.377Z,941.91
2017-07-05T05:04:09.423Z,941.88
2017-07-05T05:04:37.537Z,941.9
2017-07-05T05:05:05.530Z,941.91
2017-07-05T05:05:33.635Z,941.86
2017-07-05T05:06:01.961Z,941.81
2017-07-05T05:06:29.951Z,941.9
2017-07-05T05:06:58.076Z,941.83
2017-07-05T05:07:26.268Z,941.81
2017-07-05T05:07:54.273Z,941.86
2017-07-05T05:08:22.531Z,941.82
2017-07-05T05:08:50.771Z,941.82
2017-07-05T05:09:19.333Z,941.83
2017-07-05T05:09:47.771Z,941.82
2017-07-05T05:10:15.782Z,941.82
2017-07-05T05:10:43.880Z,941.82
2017-07-05T05:11:12.034Z,941.82
2017-07-05T05:11:40.240Z,941.83
2017-07-05T05:12:08.396Z,941.8
2017-07-05T05:12:36.405Z,941.79
2017-07-05T05:13:04.577Z,941.77
2017-07-05T05:13:32.780Z,941.78
2017-07-05T05:14:00.832Z,941.75
2017-07-05T05:14:29.317Z,941.75
2017-07-05T05:14:57.751Z,941.77
2017-07-05T05:15:25.828Z,941.75
2017-07-05T05:15:54.319Z,941.74
2017-07-05T05:16:22.482Z,941.79
2017-07-05T05:16:50.489Z,941.74
2017-07-05T05:17:18.501Z,941.79
2017-07-05T05:17:46.716Z,941.75
2017-07-05T05:18:14.866Z,941.78
2017-07-05T05:18:42.925Z,941.78
2017-07-05T05:19:11.102Z,941.76
2017-07-05T05:19:39.093Z,941.78
2017-07-05T05:20:07.271Z,941.77
2017-07-05T05:20:35.484Z,941.77
2017-07-05T05:21:03.535Z,941.8
2017-07-05T05:21:31.691Z,941.82
2017-07-05T05:21:59.901Z,941.81
2017-07-05T05:22:27.941Z,941.85
2017-07-05T05:22:56.121Z,941.82
2017-07-05T05:23:24.135Z,941.9
2017-07-05T05:23:52.223Z,941.89
2017-07-05T05:24:20.240Z,941.88
2017-07-05T05:24:48.358Z,941.85
2017-07-05T05:25:16.599Z,941.85
2017-07-05T05:25:44.595Z,941.85
2017-07-05T05:26:12.830Z,941.9
2017-07-05T05:26:41.285Z,941.86
2017-07-05T05:27:09.483Z,941.88
2017-07-05T05:27:37.528Z,941.85
2017-07-05T05:28:05.763Z,941.86
2017-07-05T05:28:34.053Z,941.83
2017-07-05T05:29:02.315Z,941.84
2017-07-05T05:29:30.530Z,941.87
2017-07-05T05:29:58.790Z,941.84
2017-07-05T05:30:27.025Z,941.86
2017-07-05T05:30:55.179Z,941.85
2017-07-05T05:31:23.378Z,941.84
2017-07-05T05:31:51.526Z,941.85
2017-07-05T05:32:19.782Z,941.86
2017-07-05T05:32:47.949Z,941.87
2017-07-05T05:33:15.968Z,941.89
2017-07-05T05:33:44.184Z,941.85
2017-07-05T05:34:12.374Z,941.89
2017-07-05T05:34:40.419Z,941.88
2017-07-05T05:35:08.451Z,941.89
2017-07-05T05:35:36.583Z,941.91
2017-07-05T05:36:04.824Z,941.87
2017-07-05T05:36:33.086Z,941.93
2017-07-05T05:37:01.095Z,941.9
2017-07-05T05:37:29.336Z,941.89
2017-07-05T05:37:57.382Z,941.92
2017-07-05T05:38:25.329Z,941.89
2017-07-05T05:38:53.263Z,941.93
2017-07-05T05:39:21.369Z,941.92
2017-07-05T05:39:49.477Z,941.9
2017-07-05T05:40:17.650Z,941.89
2017-07-05T05:40:45.686Z,941.9
2017-07-05T05:41:13.841Z,941.88
2017-07-05T05:41:42.068Z,941.87
2017-07-05T05:42:10.214Z,941.85
2017-07-05T05:42:38.338Z,941.88
2017-07-05T05:43:06.702Z,941.88
2017-07-05T05:43:35.016Z,941.88
2017-07-05T05:44:03.211Z,941.86
2017-07-05T05:44:31.322Z,941.85
2017-07-05T05:44:59.475Z,941.9
2017-07-05T05:45:27.669Z,941.89
2017-07-05T05:45:55.934Z,941.93
2017-07-05T05:46:24.296Z,941.91
2017-07-05T05:46:52.738Z,941.91
2017-07-05T05:47:21.003Z,941.93
2017-07-05T05:47:49.145Z,941.93
2017-07-05T05:48:17.283Z,941.91
2017-07-05T05:48:45.415Z,941.94
2017-07-05T05:49:13.773Z,941.94
2017-07-05T05:49:41.721Z,941.91
2017-07-05T05:50:09.995Z,941.94
2017-07-05T05:50:38.165Z,941.92
2017-07-05T05:51:06.179Z,941.91
2017-07-05T05:51:34.275Z,941.93
2017-07-05T05:52:02.792Z,941.89
2017-07-05T05:52:31.039Z,941.92
2017-07-05T05:52:59.439Z,941.94